createdAt,value
2019-03-22T00:00:31.942Z,4.08
2019-03-22T00:03:00.444Z,4.12
2019-03-22T00:05:28.993Z,4.17
2019-03-22T00:07:57.650Z,4.26
2019-03-22T00:10:26.119Z,4.34
2019-03-22T00:12:54.587Z,4.45
2019-03-22T00:15:23.118Z,4.47
2019-03-22T00:17:51.613Z,4.47
2019-03-22T00:20:20.078Z,4.48
2019-03-22T00:22:48.543Z,4.49
2019-03-22T00:25:17.027Z,4.50
2019-03-22T00:27:45.535Z,4.53
2019-03-22T00:30:14.584Z,4.48
2019-03-22T00:32:43.058Z,4.43
2019-03-22T00:35:12.207Z,4.42
2019-03-22T00:37:40.704Z,4.36
2019-03-22T00:40:10.521Z,4.34
2019-03-22T00:42:39.154Z,4.31
2019-03-22T00:45:09.272Z,4.29
2019-03-22T00:47:37.919Z,4.18
2019-03-22T00:50:08.243Z,4.24
2019-03-22T00:52:36.733Z,4.33
2019-03-22T00:55:06.358Z,4.44
2019-03-22T00:57:34.839Z,4.44
2019-03-22T01:00:04.856Z,4.41
2019-03-22T01:02:33.346Z,4.40
2019-03-22T01:05:01.872Z,4.46
2019-03-22T01:07:30.339Z,4.54
2019-03-22T01:09:58.817Z,4.58
2019-03-22T01:12:27.283Z,4.68
2019-03-22T01:14:55.793Z,4.70
2019-03-22T01:17:24.268Z,4.76
2019-03-22T01:19:52.793Z,4.86
2019-03-22T01:22:21.267Z,4.86
2019-03-22T01:24:49.765Z,4.87
2019-03-22T01:27:18.226Z,4.87
2019-03-22T01:29:46.709Z,4.88
2019-03-22T01:32:15.176Z,4.88
2019-03-22T01:34:43.681Z,4.87
2019-03-22T01:37:12.149Z,4.88
2019-03-22T01:39:40.627Z,4.94
2019-03-22T01:42:10.097Z,4.98
2019-03-22T01:44:38.610Z,5.00
2019-03-22T01:47:07.111Z,5.05
2019-03-22T01:49:35.658Z,5.04
2019-03-22T01:52:04.272Z,5.09
2019-03-22T01:54:32.781Z,5.10
2019-03-22T01:57:03.161Z,5.14
2019-03-22T01:59:31.656Z,5.19
2019-03-22T02:02:00.134Z,5.23
2019-03-22T02:04:28.824Z,5.28
2019-03-22T02:06:57.390Z,5.35
2019-03-22T02:09:25.861Z,5.40
2019-03-22T02:11:54.365Z,5.44
2019-03-22T02:14:22.834Z,5.45
2019-03-22T02:16:51.326Z,5.45
2019-03-22T02:19:19.803Z,5.51
2019-03-22T02:21:48.496Z,5.54
2019-03-22T02:24:16.969Z,5.64
2019-03-22T02:26:45.559Z,5.70
2019-03-22T02:29:14.031Z,5.66
2019-03-22T02:31:42.546Z,5.70
2019-03-22T02:34:11.010Z,5.70
2019-03-22T02:36:39.501Z,5.72
2019-03-22T02:39:07.976Z,5.71
2019-03-22T02:41:36.494Z,5.73
2019-03-22T02:44:05.035Z,5.80
2019-03-22T02:46:33.584Z,5.84
2019-03-22T02:49:02.055Z,5.82
2019-03-22T02:51:30.618Z,5.83
2019-03-22T02:53:59.079Z,5.84
2019-03-22T02:56:27.576Z,5.85
2019-03-22T02:58:59.184Z,5.85
2019-03-22T03:01:26.374Z,5.89
2019-03-22T03:03:54.842Z,5.90
2019-03-22T03:06:23.409Z,5.93
2019-03-22T03:08:51.874Z,5.95
2019-03-22T03:11:20.466Z,5.95
2019-03-22T03:13:49.904Z,5.97
2019-03-22T03:16:18.390Z,5.95
2019-03-22T03:18:46.860Z,5.97
2019-03-22T03:21:15.389Z,5.98
2019-03-22T03:23:43.887Z,5.97
2019-03-22T03:26:12.376Z,6.02
2019-03-22T03:28:40.874Z,6.09
2019-03-22T03:31:09.369Z,6.13
2019-03-22T03:33:37.834Z,6.15
2019-03-22T03:36:06.385Z,6.12
2019-03-22T03:38:34.881Z,6.09
2019-03-22T03:41:03.400Z,6.13
2019-03-22T03:43:31.877Z,6.19
2019-03-22T03:46:01.362Z,6.16
2019-03-22T03:48:29.836Z,6.13
2019-03-22T03:50:58.413Z,6.14
2019-03-22T03:53:26.946Z,6.13
2019-03-22T03:55:55.415Z,6.11
2019-03-22T03:58:23.972Z,6.12
2019-03-22T04:00:52.437Z,6.13
2019-03-22T04:03:20.957Z,6.12
2019-03-22T04:05:49.450Z,6.09
2019-03-22T04:08:17.945Z,6.08
2019-03-22T04:10:46.486Z,6.07
2019-03-22T04:13:14.992Z,6.05
2019-03-22T04:15:43.597Z,6.04
2019-03-22T04:18:12.188Z,6.05
2019-03-22T04:20:40.662Z,6.05
2019-03-22T04:23:09.144Z,6.04
2019-03-22T04:25:37.695Z,6.04
2019-03-22T04:28:06.228Z,6.04
2019-03-22T04:30:34.776Z,6.03
2019-03-22T04:33:06.360Z,6.04
2019-03-22T04:35:33.550Z,6.04
2019-03-22T04:38:02.032Z,6.03
2019-03-22T04:40:30.883Z,6.04
2019-03-22T04:42:59.553Z,6.01
2019-03-22T04:45:31.065Z,5.99
2019-03-22T04:48:08.309Z,5.99
2019-03-22T04:50:39.843Z,6.01
2019-03-22T04:53:11.614Z,6.02
2019-03-22T04:55:43.130Z,6.00
2019-03-22T04:58:14.546Z,5.98
2019-03-22T05:00:43.562Z,6.02
2019-03-22T05:03:13.324Z,6.03
2019-03-22T05:05:45.114Z,6.06
2019-03-22T05:08:16.243Z,6.10
2019-03-22T05:10:45.544Z,6.11
2019-03-22T05:13:17.505Z,6.13
2019-03-22T05:15:46.414Z,6.13
2019-03-22T05:18:15.441Z,6.15
2019-03-22T05:20:46.456Z,6.16
2019-03-22T05:23:18.225Z,6.18
2019-03-22T05:25:48.825Z,6.17
2019-03-22T05:28:20.709Z,6.21
2019-03-22T05:31:01.135Z,6.24
2019-03-22T05:33:29.658Z,6.28
2019-03-22T05:35:58.130Z,6.34
2019-03-22T05:38:26.646Z,6.41
2019-03-22T05:40:55.122Z,6.48
2019-03-22T05:43:23.687Z,6.55
2019-03-22T05:45:52.158Z,6.59
2019-03-22T05:48:21.007Z,6.63
2019-03-22T05:50:49.472Z,6.69
2019-03-22T05:53:17.992Z,6.71
2019-03-22T05:55:46.456Z,6.73
2019-03-22T05:58:14.973Z,6.73
2019-03-22T06:00:43.473Z,6.78
2019-03-22T06:03:11.945Z,6.81
2019-03-22T06:05:40.418Z,6.88
2019-03-22T06:08:09.834Z,6.93
2019-03-22T06:10:38.311Z,6.95
2019-03-22T06:13:06.788Z,6.99
2019-03-22T06:15:35.288Z,7.05
2019-03-22T06:18:04.103Z,7.15
2019-03-22T06:20:32.593Z,7.27
2019-03-22T06:23:01.190Z,7.40
2019-03-22T06:25:29.722Z,7.52
2019-03-22T06:27:58.185Z,7.61
2019-03-22T06:30:26.713Z,7.69
2019-03-22T06:32:55.220Z,7.78
2019-03-22T06:35:24.731Z,7.85
2019-03-22T06:37:53.192Z,7.92
2019-03-22T06:40:21.675Z,7.97
2019-03-22T06:42:50.146Z,8.02
2019-03-22T06:45:18.648Z,8.08
2019-03-22T06:47:47.119Z,8.15
2019-03-22T06:50:15.594Z,8.21
2019-03-22T06:52:44.398Z,8.28
2019-03-22T06:55:13.146Z,8.33
2019-03-22T06:57:41.613Z,8.35
2019-03-22T07:00:13.010Z,8.40
2019-03-22T07:02:41.452Z,8.45
2019-03-22T07:05:09.986Z,8.53
2019-03-22T07:07:38.526Z,8.61
2019-03-22T07:10:08.065Z,8.67
2019-03-22T07:12:36.525Z,8.75
2019-03-22T07:15:08.713Z,8.81
2019-03-22T07:17:37.178Z,8.85
2019-03-22T07:20:09.041Z,8.87
2019-03-22T07:22:37.518Z,8.91
2019-03-22T07:25:08.293Z,8.96
2019-03-22T07:27:37.733Z,9.04
2019-03-22T07:30:17.874Z,9.11
2019-03-22T07:32:39.040Z,9.15
2019-03-22T07:35:07.601Z,9.17
2019-03-22T07:37:36.073Z,9.20
2019-03-22T07:40:08.923Z,9.27
2019-03-22T07:42:37.484Z,9.31
2019-03-22T07:45:07.601Z,9.35
2019-03-22T07:47:39.156Z,9.40
2019-03-22T07:50:09.924Z,9.45
2019-03-22T07:52:38.659Z,9.52
2019-03-22T07:55:07.594Z,9.65
2019-03-22T07:57:37.073Z,9.75
2019-03-22T08:00:11.550Z,9.88
2019-03-22T08:02:40.015Z,9.87
2019-03-22T08:05:08.850Z,9.92
2019-03-22T08:07:37.314Z,10.03
2019-03-22T08:10:07.818Z,10.17
2019-03-22T08:12:36.264Z,10.31
2019-03-22T08:15:08.353Z,10.34
2019-03-22T08:17:36.724Z,10.29
2019-03-22T08:20:08.117Z,10.37
2019-03-22T08:22:36.731Z,10.30
2019-03-22T08:25:05.415Z,10.26
2019-03-22T08:27:33.841Z,10.35
2019-03-22T08:30:02.362Z,10.43
2019-03-22T08:32:30.813Z,10.48
2019-03-22T08:34:59.295Z,10.47
2019-03-22T08:37:27.841Z,10.54
2019-03-22T08:39:56.302Z,10.58
2019-03-22T08:42:24.852Z,10.48
2019-03-22T08:44:54.253Z,10.49
2019-03-22T08:47:33.179Z,10.57
2019-03-22T08:49:53.933Z,10.54
2019-03-22T08:52:22.444Z,10.67
2019-03-22T08:54:50.934Z,10.80
2019-03-22T08:57:19.374Z,10.81
2019-03-22T08:59:47.835Z,10.92
2019-03-22T09:02:16.342Z,10.97
2019-03-22T09:04:44.797Z,11.02
2019-03-22T09:07:13.326Z,11.05
2019-03-22T09:09:42.066Z,11.06
2019-03-22T09:12:10.736Z,11.07
2019-03-22T09:14:39.198Z,11.11
2019-03-22T09:17:07.769Z,11.15
2019-03-22T09:19:36.269Z,11.20
2019-03-22T09:22:04.883Z,11.28
2019-03-22T09:24:39.080Z,11.31
2019-03-22T09:27:03.613Z,11.35
2019-03-22T09:29:32.034Z,11.43
2019-03-22T09:32:00.525Z,11.48
2019-03-22T09:34:33.860Z,11.53
2019-03-22T09:36:59.806Z,11.58
2019-03-22T09:39:28.250Z,11.44
2019-03-22T09:41:56.752Z,11.54
2019-03-22T09:44:28.073Z,11.68
2019-03-22T09:46:55.446Z,11.72
2019-03-22T09:49:23.940Z,11.69
2019-03-22T09:51:55.113Z,11.69
2019-03-22T09:54:22.618Z,11.53
2019-03-22T09:56:51.112Z,11.52
2019-03-22T09:59:19.682Z,11.63
2019-03-22T10:01:49.249Z,11.63
2019-03-22T10:04:17.714Z,11.71
2019-03-22T10:06:46.196Z,11.62
2019-03-22T10:09:15.664Z,11.50
2019-03-22T10:11:44.219Z,11.45
2019-03-22T10:14:12.687Z,11.41
2019-03-22T10:16:41.193Z,11.44
2019-03-22T10:19:09.634Z,11.51
2019-03-22T10:21:38.147Z,11.52
2019-03-22T10:24:06.617Z,11.47
2019-03-22T10:26:35.178Z,11.40
2019-03-22T10:29:06.792Z,11.46
2019-03-22T10:31:37.559Z,11.42
2019-03-22T10:34:04.315Z,11.23
2019-03-22T10:36:32.766Z,11.20
2019-03-22T10:39:01.298Z,11.23
2019-03-22T10:41:29.813Z,11.28
2019-03-22T10:43:58.416Z,11.33
2019-03-22T10:46:26.910Z,11.39
2019-03-22T10:48:55.395Z,11.44
2019-03-22T10:51:23.852Z,11.30
2019-03-22T10:53:52.430Z,11.30
2019-03-22T10:56:20.965Z,11.23
2019-03-22T10:58:49.455Z,11.26
2019-03-22T11:01:17.918Z,11.21
2019-03-22T11:03:46.635Z,11.19
2019-03-22T11:06:25.503Z,11.22
2019-03-22T11:08:45.634Z,11.18
2019-03-22T11:11:14.099Z,11.25
2019-03-22T11:13:43.612Z,11.21
2019-03-22T11:16:12.088Z,11.28
2019-03-22T11:18:40.586Z,11.30
2019-03-22T11:21:09.057Z,11.32
2019-03-22T11:23:37.643Z,11.22
2019-03-22T11:26:06.254Z,11.11
2019-03-22T11:28:34.762Z,11.05
2019-03-22T11:31:04.960Z,11.00
2019-03-22T11:33:33.442Z,10.87
2019-03-22T11:36:01.911Z,10.80
2019-03-22T11:38:30.425Z,10.77
2019-03-22T11:41:00.011Z,10.77
2019-03-22T11:43:28.531Z,10.89
2019-03-22T11:45:57.064Z,10.99
2019-03-22T11:48:25.704Z,10.95
2019-03-22T11:50:54.239Z,10.94
2019-03-22T11:53:22.826Z,10.97
2019-03-22T11:55:51.363Z,11.00
2019-03-22T11:58:19.914Z,11.04
2019-03-22T12:00:48.394Z,11.04
2019-03-22T12:03:16.973Z,11.06
2019-03-22T12:05:45.524Z,11.06
2019-03-22T12:08:14.143Z,11.17
2019-03-22T12:10:42.668Z,11.27
2019-03-22T12:13:20.878Z,11.30
2019-03-22T12:15:49.499Z,11.32
2019-03-22T12:18:18.073Z,11.50
2019-03-22T12:20:48.271Z,11.71
2019-03-22T12:23:16.921Z,11.79
2019-03-22T12:25:45.529Z,11.82
2019-03-22T12:28:14.031Z,11.93
2019-03-22T12:30:42.523Z,11.91
2019-03-22T12:33:11.069Z,12.01
2019-03-22T12:35:39.615Z,12.08
2019-03-22T12:38:08.081Z,12.20
2019-03-22T12:40:36.761Z,12.04
2019-03-22T12:43:05.562Z,12.11
2019-03-22T12:45:34.217Z,12.08
2019-03-22T12:48:02.767Z,11.96
2019-03-22T12:50:33.105Z,12.06
2019-03-22T12:53:01.575Z,12.14
2019-03-22T12:55:32.180Z,12.20
2019-03-22T12:58:00.772Z,12.19
2019-03-22T13:00:29.831Z,12.20
2019-03-22T13:02:58.662Z,12.14
2019-03-22T13:05:27.393Z,12.08
2019-03-22T13:07:56.489Z,12.14
2019-03-22T13:10:26.886Z,12.13
2019-03-22T13:12:55.360Z,12.32
2019-03-22T13:15:23.889Z,12.43
2019-03-22T13:17:52.347Z,12.46
2019-03-22T13:20:21.998Z,12.41
2019-03-22T13:22:50.633Z,12.32
2019-03-22T13:25:21.104Z,12.29
2019-03-22T13:27:49.754Z,12.33
2019-03-22T13:30:21.427Z,12.28
2019-03-22T13:32:52.283Z,12.26
2019-03-22T13:35:20.266Z,12.19
2019-03-22T13:37:49.734Z,12.16
2019-03-22T13:40:18.261Z,12.04
2019-03-22T13:42:46.725Z,12.04
2019-03-22T13:45:16.379Z,12.09
2019-03-22T13:47:44.919Z,12.21
2019-03-22T13:50:13.874Z,12.23
2019-03-22T13:52:42.540Z,12.24
2019-03-22T13:55:11.357Z,12.28
2019-03-22T13:57:39.825Z,12.39
2019-03-22T14:00:11.101Z,12.50
2019-03-22T14:02:39.752Z,12.44
2019-03-22T14:05:09.158Z,12.46
2019-03-22T14:07:37.701Z,12.49
2019-03-22T14:10:11.325Z,12.51
2019-03-22T14:12:42.877Z,12.64
2019-03-22T14:15:11.554Z,12.83
2019-03-22T14:17:40.027Z,12.98
2019-03-22T14:20:11.537Z,12.75
2019-03-22T14:22:38.828Z,12.74
2019-03-22T14:25:07.466Z,12.70
2019-03-22T14:27:35.937Z,12.61
2019-03-22T14:30:06.802Z,12.47
2019-03-22T14:32:35.338Z,12.36
2019-03-22T14:35:05.362Z,12.21
2019-03-22T14:37:33.835Z,12.13
2019-03-22T14:40:02.416Z,12.02
2019-03-22T14:42:30.888Z,11.96
2019-03-22T14:44:59.351Z,11.93
2019-03-22T14:47:27.917Z,11.93
2019-03-22T14:49:56.395Z,11.96
2019-03-22T14:52:24.912Z,11.94
2019-03-22T14:54:54.400Z,11.95
2019-03-22T14:57:22.891Z,11.90
2019-03-22T14:59:58.899Z,11.79
2019-03-22T15:02:21.635Z,11.77
2019-03-22T15:04:50.111Z,11.79
2019-03-22T15:07:19.898Z,11.83
2019-03-22T15:09:48.795Z,11.94
2019-03-22T15:12:17.394Z,11.99
2019-03-22T15:14:47.656Z,11.92
2019-03-22T15:17:34.069Z,11.82
2019-03-22T15:20:20.984Z,11.76
2019-03-22T15:23:07.419Z,11.74
2019-03-22T15:25:49.223Z,11.68
2019-03-22T15:28:25.262Z,11.62
2019-03-22T15:30:56.378Z,11.54
2019-03-22T15:33:34.402Z,11.50
2019-03-22T15:36:01.190Z,11.44
2019-03-22T15:38:47.577Z,11.38
2019-03-22T15:41:16.146Z,11.32
2019-03-22T15:43:44.703Z,11.30
2019-03-22T15:46:13.251Z,11.25
2019-03-22T15:48:41.764Z,11.23
2019-03-22T15:51:10.356Z,11.16
2019-03-22T15:53:39.962Z,11.10
2019-03-22T15:56:08.442Z,11.06
2019-03-22T15:58:37.164Z,11.00
2019-03-22T16:01:05.810Z,10.95
2019-03-22T16:03:43.884Z,10.92
2019-03-22T16:06:04.703Z,10.92
2019-03-22T16:08:33.256Z,10.91
2019-03-22T16:11:01.804Z,10.88
2019-03-22T16:13:30.308Z,10.86
2019-03-22T16:15:58.779Z,10.87
2019-03-22T16:18:27.339Z,10.89
2019-03-22T16:20:59.989Z,10.89
2019-03-22T16:23:26.087Z,10.89
2019-03-22T16:25:54.582Z,10.86
2019-03-22T16:28:23.071Z,10.87
2019-03-22T16:30:51.560Z,10.84
2019-03-22T16:33:20.036Z,10.82
2019-03-22T16:35:48.554Z,10.80
2019-03-22T16:38:17.037Z,10.83
2019-03-22T16:40:45.581Z,10.86
2019-03-22T16:43:14.049Z,10.84
2019-03-22T16:45:44.279Z,10.86
2019-03-22T16:48:12.813Z,10.89
2019-03-22T16:50:41.390Z,10.88
2019-03-22T16:53:09.929Z,10.86
2019-03-22T16:55:38.557Z,10.82
2019-03-22T16:58:07.416Z,10.78
2019-03-22T17:00:36.281Z,10.73
2019-03-22T17:03:06.366Z,10.69
2019-03-22T17:05:36.049Z,10.68
2019-03-22T17:08:04.758Z,10.71
2019-03-22T17:10:33.340Z,10.74
2019-03-22T17:13:01.821Z,10.73
2019-03-22T17:15:30.411Z,10.69
2019-03-22T17:17:58.884Z,10.69
2019-03-22T17:20:27.571Z,10.69
2019-03-22T17:22:56.049Z,10.68
2019-03-22T17:25:24.669Z,10.67
2019-03-22T17:27:53.154Z,10.69
2019-03-22T17:30:21.842Z,10.67
2019-03-22T17:32:50.366Z,10.67
2019-03-22T17:35:18.852Z,10.61
2019-03-22T17:37:47.314Z,10.56
2019-03-22T17:40:16.086Z,10.50
2019-03-22T17:42:44.630Z,10.45
2019-03-22T17:45:15.667Z,10.45
2019-03-22T17:47:44.196Z,10.45
2019-03-22T17:50:14.218Z,10.50
2019-03-22T17:52:42.685Z,10.50
2019-03-22T17:55:12.135Z,10.45
2019-03-22T17:57:40.687Z,10.36
2019-03-22T18:00:15.926Z,10.25
2019-03-22T18:02:44.392Z,10.14
2019-03-22T18:05:13.354Z,10.12
2019-03-22T18:07:41.923Z,10.12
2019-03-22T18:10:11.897Z,10.08
2019-03-22T18:12:40.543Z,10.11
2019-03-22T18:15:13.532Z,10.12
2019-03-22T18:17:42.004Z,10.03
2019-03-22T18:20:13.400Z,9.94
2019-03-22T18:22:41.863Z,9.90
2019-03-22T18:25:11.379Z,9.88
2019-03-22T18:27:40.004Z,9.85
2019-03-22T18:30:16.163Z,9.87
2019-03-22T18:32:44.672Z,9.88
2019-03-22T18:35:13.378Z,9.89
2019-03-22T18:37:41.867Z,9.86
2019-03-22T18:40:15.453Z,9.84
2019-03-22T18:42:43.937Z,9.86
2019-03-22T18:45:13.900Z,9.86
2019-03-22T18:47:42.920Z,9.86
2019-03-22T18:50:12.620Z,9.88
2019-03-22T18:52:41.233Z,9.87
2019-03-22T18:55:10.477Z,9.83
2019-03-22T18:57:38.930Z,9.80
2019-03-22T19:00:10.352Z,9.79
2019-03-22T19:02:38.887Z,9.83
2019-03-22T19:05:08.475Z,9.83
2019-03-22T19:07:37.088Z,9.84
2019-03-22T19:10:11.433Z,9.84
2019-03-22T19:12:40.817Z,9.91
2019-03-22T19:15:13.930Z,9.88
2019-03-22T19:17:42.666Z,9.96
2019-03-22T19:20:13.175Z,10.02
2019-03-22T19:22:41.859Z,10.00
2019-03-22T19:25:10.753Z,9.90
2019-03-22T19:27:39.346Z,9.86
2019-03-22T19:30:11.102Z,9.77
2019-03-22T19:32:39.586Z,9.73
2019-03-22T19:35:09.694Z,9.74
2019-03-22T19:37:39.136Z,9.74
2019-03-22T19:40:09.747Z,9.79
2019-03-22T19:42:38.298Z,9.84
2019-03-22T19:45:10.263Z,9.87
2019-03-22T19:47:38.856Z,9.89
2019-03-22T19:50:09.455Z,9.86
2019-03-22T19:52:38.002Z,9.85
2019-03-22T19:55:10.229Z,9.88
2019-03-22T19:57:38.900Z,9.88
2019-03-22T20:00:14.952Z,9.80
2019-03-22T20:02:49.474Z,9.73
2019-03-22T20:05:29.396Z,9.67
2019-03-22T20:07:57.995Z,9.63
2019-03-22T20:10:26.461Z,9.62
2019-03-22T20:12:55.157Z,9.69
2019-03-22T20:15:23.626Z,9.76
2019-03-22T20:17:52.176Z,9.85
2019-03-22T20:20:20.723Z,9.85
2019-03-22T20:22:49.237Z,9.77
2019-03-22T20:25:17.697Z,9.72
2019-03-22T20:27:46.250Z,9.72
2019-03-22T20:30:16.550Z,9.70
2019-03-22T20:32:45.144Z,9.67
2019-03-22T20:35:16.621Z,9.67
2019-03-22T20:37:44.418Z,9.66
2019-03-22T20:40:17.967Z,9.65
2019-03-22T20:42:46.898Z,9.59
2019-03-22T20:45:23.973Z,9.48
2019-03-22T20:47:49.764Z,9.40
2019-03-22T20:50:18.262Z,9.36
2019-03-22T20:52:46.748Z,9.32
2019-03-22T20:55:15.296Z,9.30
2019-03-22T20:57:45.382Z,9.28
2019-03-22T21:00:16.029Z,9.24
2019-03-22T21:02:44.598Z,9.20
2019-03-22T21:05:13.302Z,9.16
2019-03-22T21:07:41.835Z,9.14
2019-03-22T21:10:11.079Z,9.12
2019-03-22T21:12:39.685Z,9.11
2019-03-22T21:15:12.481Z,9.07
2019-03-22T21:17:41.042Z,9.07
2019-03-22T21:20:10.670Z,9.04
2019-03-22T21:22:39.131Z,9.04
2019-03-22T21:25:09.374Z,9.05
2019-03-22T21:27:37.921Z,9.03
2019-03-22T21:30:11.438Z,8.98
2019-03-22T21:32:45.307Z,8.93
2019-03-22T21:35:21.557Z,8.89
2019-03-22T21:37:40.942Z,8.85
2019-03-22T21:40:11.255Z,8.81
2019-03-22T21:42:39.718Z,8.74
2019-03-22T21:45:09.802Z,8.71
2019-03-22T21:47:38.411Z,8.66
2019-03-22T21:50:08.564Z,8.63
2019-03-22T21:52:38.165Z,8.58
2019-03-22T21:55:07.917Z,8.56
2019-03-22T21:57:36.443Z,8.52
2019-03-22T22:00:12.258Z,8.44
2019-03-22T22:02:40.801Z,8.34
2019-03-22T22:05:09.662Z,8.24
2019-03-22T22:07:38.612Z,8.14
2019-03-22T22:10:08.866Z,8.04
2019-03-22T22:12:37.601Z,7.95
2019-03-22T22:15:13.423Z,7.86
2019-03-22T22:17:42.168Z,7.79
2019-03-22T22:20:11.432Z,7.73
2019-03-22T22:22:40.290Z,7.64
2019-03-22T22:25:10.636Z,7.55
2019-03-22T22:27:39.106Z,7.51
2019-03-22T22:30:10.102Z,7.45
2019-03-22T22:32:38.732Z,7.41
2019-03-22T22:35:10.220Z,7.35
2019-03-22T22:37:38.840Z,7.29
2019-03-22T22:40:10.139Z,7.25
2019-03-22T22:42:40.516Z,7.21
2019-03-22T22:45:10.587Z,7.17
2019-03-22T22:47:39.205Z,7.12
2019-03-22T22:50:09.810Z,7.09
2019-03-22T22:52:38.359Z,7.03
2019-03-22T22:55:07.198Z,6.97
2019-03-22T22:57:35.835Z,6.93
2019-03-22T23:00:13.741Z,6.91
2019-03-22T23:02:42.583Z,6.91
2019-03-22T23:05:11.345Z,6.90
2019-03-22T23:07:40.114Z,6.88
2019-03-22T23:10:09.287Z,6.85
2019-03-22T23:12:37.835Z,6.81
2019-03-22T23:15:07.393Z,6.79
2019-03-22T23:17:36.088Z,6.73
2019-03-22T23:20:06.583Z,6.61
2019-03-22T23:22:35.137Z,6.55
2019-03-22T23:25:04.239Z,6.46
2019-03-22T23:27:32.755Z,6.39
2019-03-22T23:30:01.239Z,6.30
2019-03-22T23:32:29.840Z,6.20
2019-03-22T23:34:59.221Z,6.16
2019-03-22T23:37:27.897Z,6.12
2019-03-22T23:39:56.401Z,6.14
2019-03-22T23:42:24.875Z,6.13
2019-03-22T23:44:53.564Z,6.12
2019-03-22T23:47:22.029Z,5.96
2019-03-22T23:49:50.590Z,5.86
2019-03-22T23:52:20.131Z,5.80
2019-03-22T23:54:48.775Z,5.76
2019-03-22T23:57:17.250Z,5.72
2019-03-22T23:59:45.794Z,5.74
